createdAt,value
2023-01-23T00:00:43.870Z,25.83
2023-01-23T00:03:30.566Z,26.20
2023-01-23T00:06:18.078Z,27.23
2023-01-23T00:09:04.931Z,26.00
2023-01-23T00:11:52.695Z,31.37
2023-01-23T00:14:39.214Z,23.67
2023-01-23T00:17:27.408Z,29.90
2023-01-23T00:20:14.467Z,27.47
2023-01-23T00:23:00.834Z,24.43
2023-01-23T00:25:47.196Z,25.10
2023-01-23T00:28:34.945Z,23.73
2023-01-23T00:31:24.641Z,27.07
2023-01-23T00:34:14.011Z,29.63
2023-01-23T00:37:00.314Z,28.93
2023-01-23T00:39:46.820Z,24.30
2023-01-23T00:42:33.062Z,29.03
2023-01-23T00:45:20.934Z,23.10
2023-01-23T00:48:07.801Z,28.97
2023-01-23T00:50:54.850Z,25.13
2023-01-23T00:53:41.429Z,24.93
2023-01-23T00:56:27.816Z,27.97
2023-01-23T00:59:14.695Z,25.90
2023-01-23T01:02:02.343Z,23.97
2023-01-23T01:04:48.654Z,30.43
2023-01-23T01:07:34.952Z,29.83
2023-01-23T01:10:21.707Z,25.63
2023-01-23T01:13:08.543Z,24.17
2023-01-23T01:15:55.837Z,24.33
2023-01-23T01:18:43.766Z,24.63
2023-01-23T01:21:30.207Z,27.73
2023-01-23T01:24:16.776Z,23.30
2023-01-23T01:27:03.341Z,24.10
2023-01-23T01:29:49.633Z,26.40
2023-01-23T01:32:37.854Z,26.20
2023-01-23T01:35:26.393Z,25.53
2023-01-23T01:38:12.630Z,30.80
2023-01-23T01:40:59.080Z,29.20
2023-01-23T01:43:46.012Z,26.90
2023-01-23T01:46:33.087Z,23.00
2023-01-23T01:49:24.824Z,26.93
2023-01-23T01:52:15.408Z,27.90
2023-01-23T01:55:06.060Z,24.43
2023-01-23T01:57:54.351Z,24.33
2023-01-23T02:00:41.100Z,29.00
2023-01-23T02:03:27.798Z,24.73
2023-01-23T02:06:14.344Z,26.93
2023-01-23T02:09:07.299Z,27.43
2023-01-23T02:11:54.174Z,23.33
2023-01-23T02:14:40.616Z,24.70
2023-01-23T02:17:27.147Z,30.33
2023-01-23T02:20:20.263Z,28.60
2023-01-23T02:23:14.527Z,29.73
2023-01-23T02:26:06.105Z,27.63
2023-01-23T02:28:55.202Z,27.40
2023-01-23T02:31:45.223Z,24.80
2023-01-23T02:34:32.090Z,30.03
2023-01-23T02:37:19.888Z,25.63
2023-01-23T02:40:08.058Z,27.60
2023-01-23T02:42:56.219Z,28.80
2023-01-23T02:45:42.851Z,27.57
2023-01-23T02:48:29.128Z,27.93
2023-01-23T02:51:16.927Z,25.60
2023-01-23T02:54:03.693Z,29.00
2023-01-23T02:56:50.601Z,29.20
2023-01-23T02:59:55.967Z,24.97
2023-01-23T03:02:42.702Z,27.50
2023-01-23T03:05:28.917Z,27.40
2023-01-23T03:08:15.278Z,27.50
2023-01-23T03:11:02.477Z,26.10
2023-01-23T03:13:49.559Z,28.27
2023-01-23T03:16:38.463Z,32.07
2023-01-23T03:19:26.981Z,28.80
2023-01-23T03:22:13.444Z,25.63
2023-01-23T03:24:59.741Z,31.10
2023-01-23T03:27:46.150Z,27.47
2023-01-23T03:30:31.717Z,30.57
2023-01-23T03:33:19.205Z,29.73
2023-01-23T03:36:05.891Z,27.73
2023-01-23T03:39:09.708Z,30.23
2023-01-23T03:41:56.398Z,28.33
2023-01-23T03:44:44.245Z,28.70
2023-01-23T03:47:30.614Z,31.50
2023-01-23T03:50:18.895Z,31.77
2023-01-23T03:53:05.573Z,30.07
2023-01-23T03:55:52.151Z,30.40
2023-01-23T03:58:38.851Z,33.50
2023-01-23T04:01:25.474Z,35.77
2023-01-23T04:04:12.165Z,30.00
2023-01-23T04:06:59.997Z,30.50
2023-01-23T04:09:46.562Z,34.83
2023-01-23T04:12:32.900Z,32.37
2023-01-23T04:15:19.279Z,31.57
2023-01-23T04:18:05.720Z,31.60
2023-01-23T04:20:52.498Z,35.63
2023-01-23T04:23:40.400Z,27.20
2023-01-23T04:26:26.617Z,28.87
2023-01-23T04:29:13.418Z,29.07
2023-01-23T04:31:59.702Z,29.17
2023-01-23T04:34:46.132Z,26.27
2023-01-23T04:37:32.448Z,28.23
2023-01-23T04:40:20.786Z,32.00
2023-01-23T04:43:07.156Z,31.60
2023-01-23T04:45:55.380Z,29.90
2023-01-23T04:48:41.921Z,27.47
2023-01-23T04:51:28.228Z,28.33
2023-01-23T04:54:14.503Z,32.20
2023-01-23T04:57:02.114Z,30.53
2023-01-23T04:59:48.530Z,31.63
2023-01-23T05:02:36.464Z,34.63
2023-01-23T05:05:23.432Z,35.53
2023-01-23T05:08:10.043Z,33.60
2023-01-23T05:10:56.437Z,35.73
2023-01-23T05:13:44.291Z,31.97
2023-01-23T05:16:30.948Z,35.03
2023-01-23T05:19:17.428Z,33.47
2023-01-23T05:22:03.727Z,39.37
2023-01-23T05:24:50.268Z,36.60
2023-01-23T05:27:36.844Z,47.87
2023-01-23T05:30:25.045Z,38.93
2023-01-23T05:33:11.871Z,38.70
2023-01-23T05:36:00.734Z,39.17
2023-01-23T05:38:47.406Z,38.90
2023-01-23T05:41:33.742Z,35.97
2023-01-23T05:44:19.980Z,43.47
2023-01-23T05:47:07.680Z,35.10
2023-01-23T05:49:54.063Z,37.67
2023-01-23T05:52:40.524Z,43.70
2023-01-23T05:55:27.340Z,40.37
2023-01-23T05:58:15.921Z,39.97
2023-01-23T06:01:03.483Z,37.43
2023-01-23T06:03:51.075Z,36.70
2023-01-23T06:06:37.573Z,44.40
2023-01-23T06:09:24.007Z,32.77
2023-01-23T06:12:10.769Z,42.90
2023-01-23T06:14:57.370Z,38.90
2023-01-23T06:17:43.653Z,37.87
2023-01-23T06:20:31.312Z,45.57
2023-01-23T06:23:17.817Z,43.53
2023-01-23T06:26:05.057Z,36.63
2023-01-23T06:28:51.474Z,43.83
2023-01-23T06:31:37.819Z,44.70
2023-01-23T06:34:24.171Z,41.00
2023-01-23T06:37:11.856Z,47.77
2023-01-23T06:39:58.341Z,44.13
2023-01-23T06:42:44.906Z,51.03
2023-01-23T06:45:31.444Z,45.17
2023-01-23T06:48:18.125Z,57.13
2023-01-23T06:51:06.086Z,47.63
2023-01-23T06:53:53.812Z,42.57
2023-01-23T06:56:40.183Z,43.57
2023-01-23T06:59:26.579Z,45.73
2023-01-23T07:02:13.843Z,43.87
2023-01-23T07:05:00.236Z,40.67
2023-01-23T07:07:47.035Z,47.03
2023-01-23T07:10:35.282Z,43.70
2023-01-23T07:13:21.734Z,43.37
2023-01-23T07:16:08.981Z,36.70
2023-01-23T07:18:58.795Z,39.07
2023-01-23T07:21:45.221Z,39.67
2023-01-23T07:24:32.477Z,35.40
2023-01-23T07:27:20.461Z,33.50
2023-01-23T07:30:07.765Z,35.33
2023-01-23T07:32:54.206Z,35.50
2023-01-23T07:35:40.931Z,38.93
2023-01-23T07:38:28.031Z,36.47
2023-01-23T07:41:14.484Z,33.77
2023-01-23T07:44:02.194Z,43.30
2023-01-23T07:46:49.359Z,38.00
2023-01-23T07:49:36.012Z,37.53
2023-01-23T07:52:22.568Z,33.70
2023-01-23T07:55:10.380Z,35.07
2023-01-23T07:57:57.269Z,31.97
2023-01-23T08:00:45.839Z,41.47
2023-01-23T08:03:32.092Z,38.90
2023-01-23T08:06:18.524Z,33.60
2023-01-23T08:09:04.996Z,30.33
2023-01-23T08:11:53.220Z,27.67
2023-01-23T08:14:40.707Z,34.50
2023-01-23T08:17:28.370Z,30.93
2023-01-23T08:20:15.133Z,31.87
2023-01-23T08:23:02.703Z,27.93
2023-01-23T08:25:54.213Z,33.37
2023-01-23T08:28:40.633Z,33.40
2023-01-23T08:31:27.070Z,33.63
2023-01-23T08:34:15.456Z,29.27
2023-01-23T08:37:01.823Z,32.33
2023-01-23T08:39:48.391Z,31.53
2023-01-23T08:42:35.076Z,34.23
2023-01-23T08:45:22.148Z,31.53
2023-01-23T08:48:08.778Z,30.43
2023-01-23T08:51:03.070Z,27.93
2023-01-23T08:53:49.240Z,29.27
2023-01-23T08:56:35.564Z,30.80
2023-01-23T08:59:21.945Z,29.50
2023-01-23T09:02:08.474Z,32.87
2023-01-23T09:04:54.891Z,32.17
2023-01-23T09:07:42.732Z,31.00
2023-01-23T09:10:29.606Z,28.23
2023-01-23T09:13:16.665Z,32.43
2023-01-23T09:16:03.780Z,32.20
2023-01-23T09:18:50.523Z,34.23
2023-01-23T09:21:37.123Z,34.53
2023-01-23T09:24:24.984Z,37.20
2023-01-23T09:27:11.476Z,34.03
2023-01-23T09:29:57.764Z,35.87
2023-01-23T09:32:44.157Z,34.00
2023-01-23T09:35:30.785Z,35.27
2023-01-23T09:38:17.456Z,31.90
2023-01-23T09:41:12.769Z,34.27
2023-01-23T09:44:01.761Z,36.43
2023-01-23T09:46:52.564Z,35.30
2023-01-23T09:49:46.155Z,31.53
2023-01-23T09:52:37.902Z,35.90
2023-01-23T09:55:35.653Z,33.17
2023-01-23T09:58:27.323Z,42.03
2023-01-23T10:01:14.481Z,36.20
2023-01-23T10:04:03.138Z,41.07
2023-01-23T10:07:22.774Z,36.37
2023-01-23T10:10:26.031Z,44.23
2023-01-23T10:13:17.413Z,47.47
2023-01-23T10:16:35.396Z,43.70
2023-01-23T10:19:47.951Z,43.67
2023-01-23T10:22:38.649Z,43.27
2023-01-23T10:25:28.586Z,40.07
2023-01-23T10:28:29.712Z,39.60
2023-01-23T10:31:29.990Z,46.00
2023-01-23T10:34:23.336Z,36.77
2023-01-23T10:37:17.950Z,45.27
2023-01-23T10:40:11.476Z,36.20
2023-01-23T10:43:03.483Z,38.63
2023-01-23T10:45:51.184Z,36.27
2023-01-23T10:48:47.391Z,41.60
2023-01-23T10:51:36.905Z,39.57
2023-01-23T10:54:32.235Z,35.07
2023-01-23T10:57:26.170Z,38.40
2023-01-23T11:00:23.192Z,41.30
2023-01-23T11:03:31.094Z,37.50
2023-01-23T11:06:25.831Z,34.70
2023-01-23T11:09:21.094Z,44.13
2023-01-23T11:12:15.350Z,39.20
2023-01-23T11:15:22.737Z,36.90
2023-01-23T11:18:31.907Z,41.60
2023-01-23T11:21:24.250Z,38.07
2023-01-23T11:24:18.839Z,41.83
2023-01-23T11:27:18.115Z,38.57
2023-01-23T11:30:26.250Z,43.97
2023-01-23T11:33:23.790Z,42.87
2023-01-23T11:36:37.641Z,43.93
2023-01-23T11:39:41.172Z,49.50
2023-01-23T11:42:29.463Z,43.03
2023-01-23T11:45:30.391Z,39.07
2023-01-23T11:48:46.415Z,41.00
2023-01-23T11:51:38.920Z,38.70
2023-01-23T11:54:49.227Z,39.43
2023-01-23T11:57:48.388Z,35.60
2023-01-23T12:00:39.303Z,53.90
2023-01-23T12:04:02.825Z,37.87
2023-01-23T12:07:21.592Z,58.03
2023-01-23T12:10:23.348Z,50.47
2023-01-23T12:13:21.900Z,45.47
2023-01-23T12:16:17.576Z,45.50
2023-01-23T12:19:21.676Z,45.07
2023-01-23T12:22:16.024Z,42.47
2023-01-23T12:25:15.757Z,48.83
2023-01-23T12:28:12.370Z,46.30
2023-01-23T12:31:19.210Z,45.43
2023-01-23T12:34:32.956Z,47.20
2023-01-23T12:37:35.618Z,43.50
2023-01-23T12:40:28.140Z,46.10
2023-01-23T12:43:19.406Z,46.87
2023-01-23T12:46:11.738Z,46.20
2023-01-23T12:49:06.983Z,48.30
2023-01-23T12:51:59.919Z,48.20
2023-01-23T12:54:52.318Z,48.17
2023-01-23T12:57:59.477Z,49.83
2023-01-23T13:01:00.230Z,43.33
2023-01-23T13:04:03.295Z,52.67
2023-01-23T13:07:03.038Z,52.77
2023-01-23T13:10:12.354Z,56.73
2023-01-23T13:12:58.883Z,52.93
2023-01-23T13:15:45.736Z,66.50
2023-01-23T13:18:52.971Z,58.17
2023-01-23T13:21:58.014Z,51.80
2023-01-23T13:25:04.093Z,56.13
2023-01-23T13:27:52.985Z,53.10
2023-01-23T13:30:43.761Z,51.67
2023-01-23T13:33:53.793Z,51.57
2023-01-23T13:36:42.310Z,50.20
2023-01-23T13:39:30.270Z,45.50
2023-01-23T13:42:36.005Z,50.50
2023-01-23T13:45:34.722Z,50.67
2023-01-23T14:22:08.474Z,52.87
2023-01-23T14:24:56.297Z,56.47
2023-01-23T14:27:52.673Z,59.40
2023-01-23T14:30:40.185Z,57.40
2023-01-23T14:33:27.784Z,56.23
2023-01-23T14:36:17.353Z,54.87
2023-01-23T14:39:06.261Z,55.27
2023-01-23T14:41:56.170Z,50.37
2023-01-23T14:44:46.497Z,58.00
2023-01-23T14:47:35.339Z,56.17
2023-01-23T14:50:25.696Z,51.43
2023-01-23T14:53:18.129Z,55.93
2023-01-23T14:56:07.175Z,50.90
2023-01-23T14:58:55.566Z,51.13
2023-01-23T15:01:42.195Z,50.13
2023-01-23T15:04:31.025Z,46.70
2023-01-23T15:07:18.860Z,48.37
2023-01-23T15:10:06.196Z,50.07
2023-01-23T15:12:55.803Z,49.93
2023-01-23T15:15:47.892Z,46.77
2023-01-23T15:18:36.652Z,52.73
2023-01-23T15:21:30.311Z,46.20
2023-01-23T15:24:27.694Z,45.77
2023-01-23T15:27:27.071Z,49.40
2023-01-23T15:30:31.974Z,46.50
2023-01-23T15:33:26.994Z,43.57
2023-01-23T15:36:25.455Z,45.40
2023-01-23T15:39:19.997Z,46.07
2023-01-23T15:42:26.315Z,46.13
2023-01-23T15:45:15.912Z,50.20
2023-01-23T15:48:03.883Z,54.80
2023-01-23T15:50:50.412Z,48.93
2023-01-23T15:53:36.792Z,48.07
2023-01-23T15:56:28.964Z,53.50
2023-01-23T15:59:19.995Z,49.00
2023-01-23T16:02:11.020Z,54.83
2023-01-23T16:05:03.126Z,49.07
2023-01-23T16:07:50.985Z,48.07
2023-01-23T16:10:39.197Z,47.30
2023-01-23T16:13:25.742Z,47.90
2023-01-23T16:16:15.200Z,45.03
2023-01-23T16:19:01.907Z,56.10
2023-01-23T16:22:03.173Z,54.53
2023-01-23T16:24:51.582Z,51.63
2023-01-23T16:27:37.906Z,51.17
2023-01-23T16:30:25.384Z,44.50
2023-01-23T16:33:11.798Z,49.50
2023-01-23T16:35:58.392Z,54.10
2023-01-23T16:38:51.297Z,51.37
2023-01-23T16:41:37.997Z,50.17
2023-01-23T16:44:24.880Z,51.17
2023-01-23T16:47:11.551Z,50.13
2023-01-23T16:49:57.812Z,45.90
2023-01-23T16:52:51.764Z,48.70
2023-01-23T16:55:42.004Z,53.77
2023-01-23T16:58:31.149Z,49.37
2023-01-23T17:01:21.629Z,44.63
2023-01-23T17:04:08.396Z,48.23
2023-01-23T17:06:54.875Z,49.97
2023-01-23T17:09:41.302Z,42.63
2023-01-23T17:12:33.972Z,42.37
2023-01-23T17:15:23.396Z,45.33
2023-01-23T17:18:20.631Z,47.83
2023-01-23T17:21:07.526Z,44.77
2023-01-23T17:23:54.489Z,42.40
2023-01-23T17:26:41.220Z,45.50
2023-01-23T17:29:29.409Z,43.33
2023-01-23T17:32:27.778Z,52.00
2023-01-23T17:35:21.371Z,48.27
2023-01-23T17:38:16.809Z,53.57
2023-01-23T17:41:06.391Z,50.83
2023-01-23T17:43:52.886Z,52.27
2023-01-23T17:46:41.242Z,40.73
2023-01-23T17:49:30.346Z,43.33
2023-01-23T17:52:17.065Z,45.10
2023-01-23T17:55:03.619Z,46.17
2023-01-23T17:57:50.712Z,46.97
2023-01-23T18:00:39.174Z,48.93
2023-01-23T18:03:27.744Z,51.77
2023-01-23T18:06:14.519Z,46.40
2023-01-23T18:09:00.854Z,46.20
2023-01-23T18:11:52.143Z,44.70
2023-01-23T18:14:46.352Z,44.87
2023-01-23T18:17:38.803Z,42.50
2023-01-23T18:20:28.436Z,47.23
2023-01-23T18:23:15.654Z,49.63
2023-01-23T18:26:18.476Z,44.67
2023-01-23T18:29:16.063Z,50.87
2023-01-23T18:32:23.816Z,50.70
2023-01-23T18:35:27.740Z,49.37
2023-01-23T18:38:21.979Z,38.87
2023-01-23T18:41:17.119Z,41.53
2023-01-23T18:44:12.309Z,40.13
2023-01-23T18:47:00.161Z,42.27
2023-01-23T18:49:47.327Z,42.43
2023-01-23T18:52:44.593Z,45.27
2023-01-23T18:55:38.275Z,43.00
2023-01-23T18:58:36.559Z,42.57
2023-01-23T19:01:29.522Z,47.40
2023-01-23T19:04:16.951Z,43.33
2023-01-23T19:07:04.042Z,40.70
2023-01-23T19:09:51.172Z,41.97
2023-01-23T19:12:48.063Z,41.17
2023-01-23T19:15:40.149Z,48.23
2023-01-23T19:18:43.742Z,51.07
2023-01-23T19:21:30.673Z,45.10
2023-01-23T19:24:20.360Z,40.27
2023-01-23T19:27:18.820Z,45.97
2023-01-23T19:30:07.932Z,36.97
2023-01-23T19:32:54.835Z,37.60
2023-01-23T19:35:41.310Z,39.83
2023-01-23T19:38:27.728Z,45.87
2023-01-23T19:41:20.760Z,38.83
2023-01-23T19:44:07.797Z,43.83
2023-01-23T19:46:56.009Z,41.37
2023-01-23T19:49:42.403Z,36.67
2023-01-23T19:52:31.874Z,49.00
2023-01-23T19:55:24.954Z,48.53
2023-01-23T19:58:15.650Z,44.07
2023-01-23T20:01:02.298Z,39.57
2023-01-23T20:03:50.123Z,38.53
2023-01-23T20:06:38.797Z,40.60
2023-01-23T20:09:25.350Z,41.27
2023-01-23T20:12:13.599Z,38.43
2023-01-23T20:14:59.970Z,39.57
2023-01-23T20:17:46.467Z,43.57
2023-01-23T20:20:34.151Z,33.20
2023-01-23T20:23:20.816Z,37.73
2023-01-23T20:26:07.811Z,40.63
2023-01-23T20:28:54.380Z,39.60
2023-01-23T20:31:40.985Z,45.43
2023-01-23T20:34:27.316Z,37.40
2023-01-23T20:37:15.329Z,40.40
2023-01-23T20:40:01.872Z,41.70
2023-01-23T20:42:48.302Z,45.73
2023-01-23T20:45:34.509Z,37.10
2023-01-23T20:48:21.962Z,35.83
2023-01-23T20:51:10.013Z,43.43
2023-01-23T20:53:58.281Z,36.77
2023-01-23T20:56:45.879Z,40.30
2023-01-23T20:59:31.426Z,40.67
2023-01-23T21:02:28.014Z,38.30
2023-01-23T21:05:14.992Z,33.87
2023-01-23T21:08:01.905Z,37.43
2023-01-23T21:10:49.526Z,37.70
2023-01-23T21:13:37.281Z,35.17
2023-01-23T21:16:23.633Z,41.43
2023-01-23T21:19:10.264Z,33.93
2023-01-23T21:21:56.797Z,40.77
2023-01-23T21:24:43.553Z,39.47
2023-01-23T21:27:31.507Z,34.87
2023-01-23T21:30:18.238Z,36.03
2023-01-23T21:33:04.794Z,35.20
2023-01-23T21:35:52.083Z,33.87
2023-01-23T21:38:38.480Z,38.07
2023-01-23T21:41:25.316Z,35.83
2023-01-23T21:44:14.028Z,35.77
2023-01-23T21:47:00.446Z,38.13
2023-01-23T21:49:46.737Z,38.20
2023-01-23T21:52:33.195Z,39.50
2023-01-23T21:55:19.752Z,37.90
2023-01-23T21:58:06.583Z,35.93
2023-01-23T22:01:16.339Z,38.13
2023-01-23T22:04:05.469Z,35.60
2023-01-23T22:06:55.442Z,35.53
2023-01-23T22:09:41.935Z,33.77
2023-01-23T22:12:29.018Z,38.03
2023-01-23T22:15:15.963Z,37.43
2023-01-23T22:18:03.898Z,37.07
2023-01-23T22:20:54.503Z,40.90
2023-01-23T22:23:40.959Z,37.33
2023-01-23T22:26:27.314Z,32.87
2023-01-23T22:29:14.812Z,39.20
2023-01-23T22:32:01.210Z,39.23
2023-01-23T22:34:49.408Z,37.73
2023-01-23T22:37:36.333Z,36.77
2023-01-23T22:40:22.604Z,38.20
2023-01-23T22:43:10.176Z,35.97
2023-01-23T22:46:04.748Z,36.23
2023-01-23T22:48:51.630Z,38.27
2023-01-23T22:51:39.524Z,37.30
2023-01-23T22:54:26.487Z,35.23
2023-01-23T22:57:12.926Z,36.53
2023-01-23T22:59:59.353Z,36.03
2023-01-23T23:02:45.785Z,34.40
2023-01-23T23:05:32.204Z,34.20
2023-01-23T23:08:19.924Z,35.73
2023-01-23T23:11:12.401Z,41.55
2023-01-23T23:13:59.187Z,38.50
2023-01-23T23:16:46.234Z,35.57
2023-01-23T23:19:33.167Z,32.70
2023-01-23T23:22:19.539Z,35.67
2023-01-23T23:25:07.995Z,36.50
2023-01-23T23:27:54.680Z,32.43
2023-01-23T23:30:41.224Z,31.57
2023-01-23T23:33:28.161Z,34.27
2023-01-23T23:36:14.825Z,32.50
2023-01-23T23:39:01.199Z,31.23
2023-01-23T23:41:48.928Z,34.37
2023-01-23T23:44:35.351Z,30.23
2023-01-23T23:47:21.656Z,40.10
2023-01-23T23:50:09.421Z,35.50
2023-01-23T23:52:55.947Z,38.57
2023-01-23T23:55:42.542Z,35.00
2023-01-23T23:58:30.354Z,33.30
